Observation data for Morton on 02/13/2018      Previous  Date  Next       Current Mesonet Observations  Soil Data  Daily Summary Page  Observations in Plain Language
KMNS 130600Z 14005KT M02/M11 A3023 RMK A01 T10161114  RH  047%=      5-min Rain = 0
KMNS 130605Z 14006KT M02/M11 A3022 RMK A01 T10161114  RH  047%=      5-min Rain = 0
KMNS 130610Z 14007KT M02/M12 A3022 RMK A01 T10171115  RH  047%=      5-min Rain = 0
KMNS 130615Z 14006KT M02/M12 A3022 RMK A01 T10181115  RH  047%=      5-min Rain = 0
KMNS 130620Z 13006KT M02/M12 A3022 RMK A01 T10201116  RH  048%=      5-min Rain = 0
KMNS 130625Z 13005KT M03/M12 A3022 RMK A01 T10251119  RH  048%=      5-min Rain = 0
KMNS 130630Z 12006KT M03/M12 A3022 RMK A01 T10321123  RH  049%=      5-min Rain = 0
KMNS 130635Z 12005KT M04/M13 A3022 RMK A01 T10361125  RH  050%=      5-min Rain = 0
KMNS 130640Z 12004KT M04/M12 A3022 RMK A01 T10361124  RH  050%=      5-min Rain = 0
KMNS 130645Z 11004KT M03/M12 A3022 RMK A01 T10341121  RH  051%=      5-min Rain = 0
KMNS 130650Z 11005KT M03/M12 A3022 RMK A01 T10331123  RH  049%=      5-min Rain = 0
KMNS 130655Z 10005KT M04/M13 A3022 RMK A01 T10381130  RH  049%=      5-min Rain = 0
KMNS 130700Z 10004KT M04/M13 A3022 RMK A01 T10411131  RH  049%=      5-min Rain = 0
KMNS 130705Z 10005KT M04/M13 A3022 RMK A01 T10411129  RH  050%=      5-min Rain = 0
KMNS 130710Z 11006KT M04/M13 A3022 RMK A01 T10391125  RH  051%=      5-min Rain = 0
KMNS 130715Z 11006KT M04/M12 A3022 RMK A01 T10381123  RH  051%=      5-min Rain = 0
KMNS 130720Z 11005KT M04/M12 A3022 RMK A01 T10371123  RH  051%=      5-min Rain = 0
KMNS 130725Z 11004KT M04/M12 A3022 RMK A01 T10381124  RH  051%=      5-min Rain = 0
KMNS 130730Z 10003KT M04/M13 A3022 RMK A01 T10381127  RH  050%=      5-min Rain = 0
KMNS 130735Z 09003KT M04/M13 A3022 RMK A01 T10381125  RH  051%=      5-min Rain = 0
KMNS 130740Z 09003KT M04/M13 A3023 RMK A01 T10391125  RH  051%=      5-min Rain = 0
KMNS 130745Z 09003KT M04/M13 A3023 RMK A01 T10421128  RH  051%=      5-min Rain = 0
KMNS 130750Z 09003KT M04/M13 A3023 RMK A01 T10431127  RH  051%=      5-min Rain = 0
KMNS 130755Z 08003KT M04/M13 A3023 RMK A01 T10431126  RH  052%=      5-min Rain = 0
KMNS 130800Z 07003KT M04/M13 A3023 RMK A01 T10411125  RH  052%=      5-min Rain = 0
KMNS 130805Z 06002KT M05/M13 A3023 RMK A01 T10451130  RH  051%=      5-min Rain = 0
KMNS 130810Z 05002KT M05/M13 A3023 RMK A01 T10491130  RH  053%=      5-min Rain = 0
KMNS 130815Z 06001KT M05/M13 A3023 RMK A01 T10481126  RH  054%=      5-min Rain = 0
KMNS 130820Z 04001KT M05/M13 A3023 RMK A01 T10501127  RH  054%=      5-min Rain = 0
KMNS 130825Z 03000KT M05/M13 A3023 RMK A01 T10501125  RH  055%=      5-min Rain = 0
KMNS 130830Z 03000KT M05/M13 A3023 RMK A01 T10491125  RH  055%=      5-min Rain = 0
KMNS 130835Z 16000KT M05/M12 A3023 RMK A01 T10491120  RH  057%=      5-min Rain = 0
KMNS 130840Z 18001KT M05/M12 A3023 RMK A01 T10531123  RH  057%=      5-min Rain = 0
KMNS 130845Z 19001KT M05/M12 A3023 RMK A01 T10521121  RH  058%=      5-min Rain = 0
KMNS 130850Z 20001KT M05/M12 A3023 RMK A01 T10521121  RH  058%=      5-min Rain = 0
KMNS 130855Z 17001KT M05/M12 A3023 RMK A01 T10501121  RH  057%=      5-min Rain = 0
KMNS 130900Z 16001KT M05/M12 A3023 RMK A01 T10491121  RH  057%=      5-min Rain = 0
KMNS 130905Z 15001KT M05/M12 A3023 RMK A01 T10491122  RH  056%=      5-min Rain = 0
KMNS 130910Z 09000KT M05/M13 A3023 RMK A01 T10541127  RH  056%=      5-min Rain = 0
KMNS 130915Z 06001KT M06/M13 A3023 RMK A01 T10561129  RH  056%=      5-min Rain = 0
KMNS 130920Z 06002KT M06/M13 A3023 RMK A01 T10571132  RH  055%=      5-min Rain = 0
KMNS 130925Z 08002KT M06/M13 A3022 RMK A01 T10551131  RH  055%=      5-min Rain = 0
KMNS 130930Z 10002KT M05/M13 A3022 RMK A01 T10531131  RH  054%=      5-min Rain = 0
KMNS 130935Z 11002KT M06/M13 A3022 RMK A01 T10561131  RH  055%=      5-min Rain = 0
KMNS 130940Z 10002KT M06/M14 A3023 RMK A01 T10591135  RH  055%=      5-min Rain = 0
KMNS 130945Z 09002KT M06/M13 A3022 RMK A01 T10571133  RH  055%=      5-min Rain = 0
KMNS 130950Z 10001KT M05/M13 A3023 RMK A01 T10531130  RH  054%=      5-min Rain = 0
KMNS 130955Z 11001KT M05/M13 A3023 RMK A01 T10541129  RH  055%=      5-min Rain = 0
KMNS 131000Z 00000KT M06/M13 A3022 RMK A01 T10601133  RH  056%=      5-min Rain = 0
KMNS 131005Z 11000KT M06/M13 A3022 RMK A01 T10591129  RH  057%=      5-min Rain = 0
KMNS 131010Z 02000KT M06/M12 A3022 RMK A01 T10601123  RH  060%=      5-min Rain = 0
KMNS 131015Z 01001KT M06/M13 A3022 RMK A01 T10611126  RH  059%=      5-min Rain = 0
KMNS 131020Z 01002KT M06/M13 A3022 RMK A01 T10601128  RH  059%=      5-min Rain = 0
KMNS 131025Z 01003KT M06/M14 A3022 RMK A01 T10621135  RH  056%=      5-min Rain = 0
KMNS 131030Z 00004KT M06/M14 A3022 RMK A01 T10641138  RH  055%=      5-min Rain = 0
KMNS 131035Z 36003KT M07/M14 A3022 RMK A01 T10651139  RH  055%=      5-min Rain = 0
KMNS 131040Z 00002KT M07/M14 A3022 RMK A01 T10661140  RH  055%=      5-min Rain = 0
KMNS 131045Z 01003KT M07/M14 A3022 RMK A01 T10671140  RH  055%=      5-min Rain = 0
KMNS 131050Z 03002KT M07/M14 A3021 RMK A01 T10671142  RH  055%=      5-min Rain = 0
KMNS 131055Z 05002KT M07/M14 A3021 RMK A01 T10671143  RH  054%=      5-min Rain = 0
KMNS 131100Z 04002KT M07/M14 A3022 RMK A01 T10671143  RH  054%=      5-min Rain = 0
KMNS 131105Z 07002KT M07/M14 A3022 RMK A01 T10681142  RH  055%=      5-min Rain = 0
KMNS 131110Z 08002KT M07/M14 A3022 RMK A01 T10681142  RH  055%=      5-min Rain = 0
KMNS 131115Z 09003KT M07/M14 A3022 RMK A01 T10681142  RH  055%=      5-min Rain = 0
KMNS 131120Z 09002KT M07/M14 A3022 RMK A01 T10681142  RH  055%=      5-min Rain = 0
KMNS 131125Z 09001KT M07/M15 A3022 RMK A01 T10701145  RH  054%=      5-min Rain = 0
KMNS 131130Z 09001KT M07/M14 A3022 RMK A01 T10701144  RH  055%=      5-min Rain = 0
KMNS 131135Z 09001KT M07/M14 A3022 RMK A01 T10681141  RH  056%=      5-min Rain = 0
KMNS 131140Z 09001KT M07/M14 A3022 RMK A01 T10671138  RH  057%=      5-min Rain = 0
KMNS 131145Z 11002KT M07/M14 A3022 RMK A01 T10661135  RH  057%=      5-min Rain = 0
KMNS 131150Z 13002KT M06/M13 A3022 RMK A01 T10641134  RH  057%=      5-min Rain = 0
KMNS 131155Z 13003KT M07/M14 A3022 RMK A01 T10651135  RH  057%=      5-min Rain = 0
KMNS 131200Z 13003KT M07/M14 A3022 RMK A01 T10661138  RH  056%=      5-min Rain = 0
KMNS 131205Z 13003KT M07/M14 A3022 RMK A01 T10661138  RH  056%=      5-min Rain = 0
KMNS 131210Z 13004KT M07/M14 A3023 RMK A01 T10651137  RH  056%=      5-min Rain = 0
KMNS 131215Z 13004KT M06/M14 A3023 RMK A01 T10631136  RH  056%=      5-min Rain = 0
KMNS 131220Z 14005KT M06/M13 A3023 RMK A01 T10611133  RH  056%=      5-min Rain = 0
KMNS 131225Z 14005KT M06/M13 A3023 RMK A01 T10571129  RH  056%=      5-min Rain = 0
KMNS 131230Z 14004KT M06/M13 A3023 RMK A01 T10551129  RH  056%=      5-min Rain = 0
KMNS 131235Z 13006KT M05/M13 A3023 RMK A01 T10541128  RH  056%=      5-min Rain = 0
KMNS 131240Z 14006KT M06/M13 A3022 RMK A01 T10551130  RH  055%=      5-min Rain = 0
KMNS 131245Z 14006KT M05/M13 A3022 RMK A01 T10531128  RH  055%=      5-min Rain = 0
KMNS 131250Z 14006KT M05/M12 A3022 RMK A01 T10481124  RH  055%=      5-min Rain = 0
KMNS 131255Z 15005KT M05/M13 A3023 RMK A01 T10481125  RH  054%=      5-min Rain = 0
KMNS 131300Z 15004KT M05/M13 A3023 RMK A01 T10491125  RH  055%=      5-min Rain = 0
KMNS 131305Z 14003KT M05/M12 A3023 RMK A01 T10481124  RH  055%=      5-min Rain = 0
KMNS 131310Z 06002KT M05/M13 A3024 RMK A01 T10511129  RH  054%=      5-min Rain = 0
KMNS 131315Z 02006KT M05/M13 A3025 RMK A01 T10541134  RH  053%=      5-min Rain = 0
KMNS 131320Z 01004KT M05/M13 A3025 RMK A01 T10541132  RH  054%=      5-min Rain = 0
KMNS 131325Z 06003KT M05/M13 A3025 RMK A01 T10531131  RH  054%=      5-min Rain = 0
KMNS 131330Z 02003KT M05/M13 A3025 RMK A01 T10541132  RH  054%=      5-min Rain = 0
KMNS 131335Z 01003KT M06/M13 A3025 RMK A01 T10561132  RH  054%=      5-min Rain = 0
KMNS 131340Z 05002KT M06/M13 A3025 RMK A01 T10571131  RH  055%=      5-min Rain = 0
KMNS 131345Z 04003KT M06/M13 A3025 RMK A01 T10561131  RH  055%=      5-min Rain = 0
KMNS 131350Z 04003KT M06/M13 A3026 RMK A01 T10551131  RH  055%=      5-min Rain = 0
KMNS 131355Z 03002KT M05/M13 A3026 RMK A01 T10531130  RH  054%=      5-min Rain = 0
KMNS 131400Z 01002KT M05/M13 A3026 RMK A01 T10521130  RH  054%=      5-min Rain = 0
KMNS 131405Z 36002KT M05/M13 A3026 RMK A01 T10521129  RH  054%=      5-min Rain = 0
KMNS 131410Z 34001KT M05/M13 A3026 RMK A01 T10511127  RH  055%=      5-min Rain = 0
KMNS 131415Z 35000KT M05/M13 A3026 RMK A01 T10501125  RH  055%=      5-min Rain = 0
KMNS 131420Z 35001KT M05/M12 A3027 RMK A01 T10481124  RH  055%=      5-min Rain = 0
KMNS 131425Z 34000KT M05/M12 A3027 RMK A01 T10461123  RH  054%=      5-min Rain = 0
KMNS 131430Z 35001KT M04/M12 A3027 RMK A01 T10421121  RH  054%=      5-min Rain = 0
KMNS 131435Z 32000KT M04/M12 A3027 RMK A01 T10371120  RH  052%=      5-min Rain = 0
KMNS 131440Z 35001KT M04/M12 A3027 RMK A01 T10351120  RH  051%=      5-min Rain = 0
KMNS 131445Z 00000KT M03/M12 A3027 RMK A01 T10321118  RH  051%=      5-min Rain = 0
KMNS 131450Z 34000KT M03/M12 A3028 RMK A01 T10261116  RH  050%=      5-min Rain = 0
KMNS 131455Z 12000KT M02/M11 A3028 RMK A01 T10221114  RH  049%=      5-min Rain = 0
KMNS 131500Z 16001KT M02/M11 A3028 RMK A01 T10201112  RH  049%=      5-min Rain = 0
KMNS 131505Z 35001KT M02/M11 A3028 RMK A01 T10181109  RH  050%=      5-min Rain = 0
KMNS 131510Z 33002KT M02/M11 A3029 RMK A01 T10151107  RH  049%=      5-min Rain = 0
KMNS 131515Z 27002KT M01/M10 A3029 RMK A01 T10101101  RH  050%=      5-min Rain = 0
KMNS 131520Z 20003KT M01/M10 A3029 RMK A01 T10081099  RH  050%=      5-min Rain = 0
KMNS 131525Z 18002KT M01/M10 A303 RMK A01 T10051098  RH  049%=      5-min Rain = 0
KMNS 131530Z 19002KT M01/M10 A303 RMK A01 T10051099  RH  049%=      5-min Rain = 0
KMNS 131535Z 21000KT M00/M10 A303 RMK A01 T10041098  RH  049%=      5-min Rain = 0
KMNS 131540Z 18001KT 00/M09 A303 RMK A01 T00031094  RH  048%=      5-min Rain = 0
KMNS 131545Z 20001KT 01/M09 A303 RMK A01 T00081093  RH  047%=      5-min Rain = 0
KMNS 131550Z 21003KT 01/M09 A303 RMK A01 T00141086  RH  047%=      5-min Rain = 0
KMNS 131555Z 20003KT 02/M08 A303 RMK A01 T00171081  RH  048%=      5-min Rain = 0
KMNS 131600Z 21004KT 03/M07 A3029 RMK A01 T00251070  RH  050%=      5-min Rain = 0
KMNS 131605Z 22006KT 03/M06 A3029 RMK A01 T00331064  RH  049%=      5-min Rain = 0
KMNS 131610Z 22005KT 03/M06 A303 RMK A01 T00341063  RH  049%=      5-min Rain = 0
KMNS 131615Z 26004KT 04/M06 A3031 RMK A01 T00361063  RH  048%=      5-min Rain = 0
KMNS 131620Z 24004KT 04/M06 A3031 RMK A01 T00401059  RH  049%=      5-min Rain = 0
KMNS 131625Z 22005KT 05/M06 A3031 RMK A01 T00501056  RH  046%=      5-min Rain = 0
KMNS 131630Z 21006KT 05/M05 A3031 RMK A01 T00531053  RH  046%=      5-min Rain = 0
KMNS 131635Z 21008KT 06/M05 A303 RMK A01 T00571050  RH  046%=      5-min Rain = 0
KMNS 131640Z 21007KT 06/M05 A303 RMK A01 T00571049  RH  046%=      5-min Rain = 0
KMNS 131645Z 19006KT 06/M05 A303 RMK A01 T00621049  RH  045%=      5-min Rain = 0
KMNS 131650Z 22007KT 07/M05 A303 RMK A01 T00671047  RH  044%=      5-min Rain = 0
KMNS 131655Z 22007KT 07/M05 A303 RMK A01 T00671049  RH  044%=      5-min Rain = 0
KMNS 131700Z 23005KT 07/M05 A303 RMK A01 T00681048  RH  043%=      5-min Rain = 0
KMNS 131705Z 24005KT 07/M05 A303 RMK A01 T00691048  RH  043%=      5-min Rain = 0
KMNS 131710Z 23006KT 08/M05 A303 RMK A01 T00751046  RH  042%=      5-min Rain = 0
KMNS 131715Z 25004KT 08/M05 A3029 RMK A01 T00791045  RH  041%=      5-min Rain = 0
KMNS 131720Z 19009KT 09/M04 A3029 RMK A01 T00851037  RH  042%=      5-min Rain = 0
KMNS 131725Z 21008KT 09/M04 A3028 RMK A01 T00871038  RH  041%=      5-min Rain = 0
KMNS 131730Z 21007KT 09/M04 A3028 RMK A01 T00901036  RH  041%=      5-min Rain = 0
KMNS 131735Z 21006KT 09/M04 A3028 RMK A01 T00881037  RH  041%=      5-min Rain = 0
KMNS 131740Z 19006KT 09/M04 A3028 RMK A01 T00921036  RH  041%=      5-min Rain = 0
KMNS 131745Z 21008KT 09/M04 A3028 RMK A01 T00941036  RH  040%=      5-min Rain = 0
KMNS 131750Z 20008KT 10/M04 A3028 RMK A01 T00961036  RH  039%=      5-min Rain = 0
KMNS 131755Z 22008KT 10/M04 A3028 RMK A01 T00981037  RH  039%=      5-min Rain = 0
KMNS 131800Z 20005KT 10/M04 A3028 RMK A01 T00971038  RH  039%=      5-min Rain = 0
KMNS 131805Z 20006KT 10/M04 A3027 RMK A01 T01031037  RH  037%=      5-min Rain = 0
KMNS 131810Z 22004KT 11/M04 A3027 RMK A01 T01051037  RH  037%=      5-min Rain = 0
KMNS 131815Z 20005KT 11/M04 A3027 RMK A01 T01081037  RH  036%=      5-min Rain = 0
KMNS 131820Z 18005KT 11/M04 A3028 RMK A01 T01091036  RH  036%=      5-min Rain = 0
KMNS 131825Z 16003KT 11/M04 A3027 RMK A01 T01111037  RH  035%=      5-min Rain = 0
KMNS 131830Z 20004KT 12/M04 A3027 RMK A01 T01151035  RH  035%=      5-min Rain = 0
KMNS 131835Z 22005G10KT 12/M04 A3027 RMK A01 T01201035  RH  034%=      5-min Rain = 0
KMNS 131840Z 18007KT 12/M04 A3027 RMK A01 T01191035  RH  034%=      5-min Rain = 0
KMNS 131845Z 20005G10KT 12/M04 A3027 RMK A01 T01201036  RH  034%=      5-min Rain = 0
KMNS 131850Z 22006KT 12/M04 A3027 RMK A01 T01171036  RH  034%=      5-min Rain = 0
KMNS 131855Z 21007KT 12/M04 A3026 RMK A01 T01221036  RH  033%=      5-min Rain = 0
KMNS 131900Z 21004KT 13/M04 A3026 RMK A01 T01271036  RH  032%=      5-min Rain = 0
KMNS 131905Z 21005KT 13/M04 A3026 RMK A01 T01261037  RH  032%=      5-min Rain = 0
KMNS 131910Z 22005KT 13/M04 A3026 RMK A01 T01281037  RH  032%=      5-min Rain = 0
KMNS 131915Z 21006KT 13/M04 A3026 RMK A01 T01341038  RH  030%=      5-min Rain = 0
KMNS 131920Z 18007KT 14/M04 A3026 RMK A01 T01391038  RH  029%=      5-min Rain = 0
KMNS 131925Z 20006KT 14/M04 A3026 RMK A01 T01381038  RH  029%=      5-min Rain = 0
KMNS 131930Z 20007KT 14/M04 A3025 RMK A01 T01431039  RH  028%=      5-min Rain = 0
KMNS 131935Z 19006KT 15/M04 A3025 RMK A01 T01461038  RH  028%=      5-min Rain = 0
KMNS 131940Z 19005KT 15/M04 A3024 RMK A01 T01461039  RH  028%=      5-min Rain = 0
KMNS 131945Z 17006KT 15/M04 A3024 RMK A01 T01501038  RH  027%=      5-min Rain = 0
KMNS 131950Z 17004G9KT 16/M04 A3024 RMK A01 T01551037  RH  027%=      5-min Rain = 0
KMNS 131955Z 16006G11KT 16/M04 A3023 RMK A01 T01551036  RH  027%=      5-min Rain = 0
KMNS 132000Z 20007KT 15/M04 A3023 RMK A01 T01531039  RH  027%=      5-min Rain = 0
KMNS 132005Z 20005KT 15/M04 A3023 RMK A01 T01541038  RH  027%=      5-min Rain = 0
KMNS 132010Z 17006G11KT 15/M04 A3023 RMK A01 T01541037  RH  027%=      5-min Rain = 0
KMNS 132015Z 20007G12KT 16/M04 A3023 RMK A01 T01581038  RH  026%=      5-min Rain = 0
KMNS 132020Z 19006KT 16/M04 A3023 RMK A01 T01601038  RH  025%=      5-min Rain = 0
KMNS 132025Z 18009KT 16/M04 A3023 RMK A01 T01621039  RH  025%=      5-min Rain = 0
KMNS 132030Z 19007G13KT 16/M04 A3022 RMK A01 T01621039  RH  025%=      5-min Rain = 0
KMNS 132035Z 19007KT 16/M04 A3022 RMK A01 T01641040  RH  025%=      5-min Rain = 0
KMNS 132040Z 18007G13KT 17/M04 A3022 RMK A01 T01651039  RH  025%=      5-min Rain = 0
KMNS 132045Z 16007KT 17/M04 A3021 RMK A01 T01661037  RH  025%=      5-min Rain = 0
KMNS 132050Z 19008KT 17/M04 A3021 RMK A01 T01711037  RH  024%=      5-min Rain = 0
KMNS 132055Z 16008KT 17/M04 A3021 RMK A01 T01711037  RH  024%=      5-min Rain = 0
KMNS 132100Z 16008KT 17/M04 A3022 RMK A01 T01721039  RH  024%=      5-min Rain = 0
KMNS 132105Z 17008G13KT 17/M04 A3022 RMK A01 T01731038  RH  024%=      5-min Rain = 0
KMNS 132110Z 16007G13KT 18/M04 A3022 RMK A01 T01751036  RH  024%=      5-min Rain = 0
KMNS 132115Z 18010G15KT 18/M04 A3022 RMK A01 T01771036  RH  023%=      5-min Rain = 0
KMNS 132120Z 17008KT 18/M04 A3022 RMK A01 T01811036  RH  023%=      5-min Rain = 0
KMNS 132125Z 19010KT 18/M04 A3022 RMK A01 T01821037  RH  022%=      5-min Rain = 0
KMNS 132130Z 19009G14KT 18/M04 A3022 RMK A01 T01781040  RH  022%=      5-min Rain = 0
KMNS 132135Z 19009G18KT 18/M04 A3022 RMK A01 T01791035  RH  023%=      5-min Rain = 0
KMNS 132140Z 19011G16KT 18/M04 A3022 RMK A01 T01771038  RH  023%=      5-min Rain = 0
KMNS 132145Z 19010KT 17/M04 A3022 RMK A01 T01721037  RH  024%=      5-min Rain = 0
KMNS 132150Z 18009G14KT 17/M04 A3022 RMK A01 T01741036  RH  024%=      5-min Rain = 0
KMNS 132155Z 18010KT 17/M04 A3022 RMK A01 T01741036  RH  024%=      5-min Rain = 0
KMNS 132200Z 18010G16KT 18/M04 A3021 RMK A01 T01761035  RH  024%=      5-min Rain = 0
KMNS 132205Z 18010KT 18/M03 A3021 RMK A01 T01771031  RH  024%=      5-min Rain = 0
KMNS 132210Z 19010KT 18/M03 A3021 RMK A01 T01811033  RH  023%=      5-min Rain = 0
KMNS 132215Z 19008KT 18/M04 A3022 RMK A01 T01841035  RH  023%=      5-min Rain = 0
KMNS 132220Z 19010KT 18/M04 A3021 RMK A01 T01811035  RH  023%=      5-min Rain = 0
KMNS 132225Z 19009KT 18/M04 A3021 RMK A01 T01771035  RH  023%=      5-min Rain = 0
KMNS 132230Z 18009KT 17/M04 A3021 RMK A01 T01741035  RH  024%=      5-min Rain = 0
KMNS 132235Z 16009KT 18/M03 A3021 RMK A01 T01771034  RH  023%=      5-min Rain = 0
KMNS 132240Z 17009KT 17/M04 A3021 RMK A01 T01731035  RH  024%=      5-min Rain = 0
KMNS 132245Z 18009KT 18/M03 A3021 RMK A01 T01751034  RH  024%=      5-min Rain = 0
KMNS 132250Z 18011KT 17/M03 A3021 RMK A01 T01741033  RH  024%=      5-min Rain = 0
KMNS 132255Z 18009KT 17/M03 A3021 RMK A01 T01721032  RH  025%=      5-min Rain = 0
KMNS 132300Z 18009KT 17/M03 A3021 RMK A01 T01701032  RH  025%=      5-min Rain = 0
KMNS 132305Z 18010KT 17/M03 A3021 RMK A01 T01661031  RH  026%=      5-min Rain = 0
KMNS 132310Z 17008KT 17/M03 A3021 RMK A01 T01671030  RH  026%=      5-min Rain = 0
KMNS 132315Z 17009KT 17/M03 A3021 RMK A01 T01701026  RH  026%=      5-min Rain = 0
KMNS 132320Z 17010KT 17/M03 A3021 RMK A01 T01721027  RH  026%=      5-min Rain = 0
KMNS 132325Z 18010KT 17/M03 A3021 RMK A01 T01721028  RH  025%=      5-min Rain = 0
KMNS 132330Z 17009KT 17/M03 A3021 RMK A01 T01701028  RH  026%=      5-min Rain = 0
KMNS 132335Z 17009KT 17/M03 A3021 RMK A01 T01681026  RH  027%=      5-min Rain = 0
KMNS 132340Z 16009KT 17/M02 A3021 RMK A01 T01671024  RH  027%=      5-min Rain = 0
KMNS 132345Z 17009KT 16/M03 A3022 RMK A01 T01631025  RH  028%=      5-min Rain = 0
KMNS 132350Z 17008G13KT 16/M03 A3022 RMK A01 T01591025  RH  028%=      5-min Rain = 0
KMNS 132355Z 16008KT 16/M02 A3022 RMK A01 T01561022  RH  030%=      5-min Rain = 0
KMNS 140000Z 15008KT 16/M02 A3022 RMK A01 T01551020  RH  030%=      5-min Rain = 0
KMNS 140005Z 15008KT 15/M02 A3022 RMK A01 T01521019  RH  031%=      5-min Rain = 0
KMNS 140010Z 15008KT 15/M02 A3022 RMK A01 T01501018  RH  031%=      5-min Rain = 0
KMNS 140015Z 15008KT 15/M02 A3022 RMK A01 T01481019  RH  032%=      5-min Rain = 0
KMNS 140020Z 15008KT 15/M02 A3022 RMK A01 T01461018  RH  033%=      5-min Rain = 0
KMNS 140025Z 15008KT 14/M02 A3022 RMK A01 T01421018  RH  033%=      5-min Rain = 0
KMNS 140030Z 15008KT 14/M02 A3022 RMK A01 T01391018  RH  034%=      5-min Rain = 0
KMNS 140035Z 15008KT 14/M02 A3022 RMK A01 T01361017  RH  035%=      5-min Rain = 0
KMNS 140040Z 15008KT 14/M02 A3022 RMK A01 T01351016  RH  035%=      5-min Rain = 0
KMNS 140045Z 15009KT 13/M02 A3022 RMK A01 T01341017  RH  036%=      5-min Rain = 0
KMNS 140050Z 15009KT 13/M02 A3022 RMK A01 T01301018  RH  036%=      5-min Rain = 0
KMNS 140055Z 15009KT 12/M02 A3022 RMK A01 T01241020  RH  037%=      5-min Rain = 0
KMNS 140100Z 15009KT 12/M02 A3022 RMK A01 T01211021  RH  038%=      5-min Rain = 0
KMNS 140105Z 15009KT 12/M02 A3023 RMK A01 T01191022  RH  038%=      5-min Rain = 0
KMNS 140110Z 15009KT 12/M02 A3023 RMK A01 T01161022  RH  039%=      5-min Rain = 0
KMNS 140115Z 15009KT 11/M02 A3023 RMK A01 T01141020  RH  039%=      5-min Rain = 0
KMNS 140120Z 15009KT 11/M02 A3023 RMK A01 T01141018  RH  040%=      5-min Rain = 0
KMNS 140125Z 15008KT 11/M02 A3023 RMK A01 T01121019  RH  040%=      5-min Rain = 0
KMNS 140130Z 15008KT 11/M02 A3023 RMK A01 T01061022  RH  041%=      5-min Rain = 0
KMNS 140135Z 15008KT 10/M02 A3023 RMK A01 T01011023  RH  042%=      5-min Rain = 0
KMNS 140140Z 15008KT 10/M02 A3023 RMK A01 T00981024  RH  043%=      5-min Rain = 0
KMNS 140145Z 14008KT 10/M02 A3024 RMK A01 T00961023  RH  044%=      5-min Rain = 0
KMNS 140150Z 14007KT 10/M02 A3024 RMK A01 T00951021  RH  044%=      5-min Rain = 0
KMNS 140155Z 15007KT 09/M02 A3024 RMK A01 T00941021  RH  045%=      5-min Rain = 0
KMNS 140200Z 15007KT 09/M02 A3024 RMK A01 T00921020  RH  046%=      5-min Rain = 0
KMNS 140205Z 16007KT 09/M02 A3025 RMK A01 T00911019  RH  046%=      5-min Rain = 0
KMNS 140210Z 16007KT 09/M02 A3025 RMK A01 T00941017  RH  046%=      5-min Rain = 0
KMNS 140215Z 16007KT 09/M02 A3025 RMK A01 T00931017  RH  047%=      5-min Rain = 0
KMNS 140220Z 16009KT 09/M02 A3025 RMK A01 T00911016  RH  047%=      5-min Rain = 0
KMNS 140225Z 16009KT 09/M02 A3025 RMK A01 T00911016  RH  048%=      5-min Rain = 0
KMNS 140230Z 16008KT 09/M02 A3025 RMK A01 T00881016  RH  048%=      5-min Rain = 0
KMNS 140235Z 16009KT 09/M02 A3025 RMK A01 T00901015  RH  048%=      5-min Rain = 0
KMNS 140240Z 16009KT 09/M01 A3025 RMK A01 T00911013  RH  048%=      5-min Rain = 0
KMNS 140245Z 16010KT 09/M01 A3025 RMK A01 T00931012  RH  048%=      5-min Rain = 0
KMNS 140250Z 16010KT 09/M01 A3025 RMK A01 T00921012  RH  049%=      5-min Rain = 0
KMNS 140255Z 16010KT 09/M01 A3025 RMK A01 T00891013  RH  049%=      5-min Rain = 0
KMNS 140300Z 16009KT 09/M01 A3025 RMK A01 T00861013  RH  050%=      5-min Rain = 0
KMNS 140305Z 16008KT 09/M01 A3025 RMK A01 T00881011  RH  050%=      5-min Rain = 0
KMNS 140310Z 16007KT 09/M01 A3025 RMK A01 T00871012  RH  050%=      5-min Rain = 0
KMNS 140315Z 15006KT 09/M01 A3025 RMK A01 T00871012  RH  051%=      5-min Rain = 0
KMNS 140320Z 14005KT 08/M01 A3026 RMK A01 T00831014  RH  051%=      5-min Rain = 0
KMNS 140325Z 14004KT 08/M02 A3026 RMK A01 T00771017  RH  052%=      5-min Rain = 0
KMNS 140330Z 14005KT 08/M02 A3026 RMK A01 T00751017  RH  053%=      5-min Rain = 0
KMNS 140335Z 14007KT 08/M01 A3026 RMK A01 T00771012  RH  054%=      5-min Rain = 0
KMNS 140340Z 15007KT 08/M01 A3026 RMK A01 T00811009  RH  054%=      5-min Rain = 0
KMNS 140345Z 15008KT 08/M01 A3026 RMK A01 T00841007  RH  053%=      5-min Rain = 0
KMNS 140350Z 16008KT 09/M01 A3026 RMK A01 T00871006  RH  053%=      5-min Rain = 0
KMNS 140355Z 15008KT 09/M01 A3025 RMK A01 T00881006  RH  052%=      5-min Rain = 0
KMNS 140400Z 15009KT 09/M01 A3026 RMK A01 T00901006  RH  052%=      5-min Rain = 0
KMNS 140405Z 16008KT 09/M01 A3026 RMK A01 T00901006  RH  052%=      5-min Rain = 0
KMNS 140410Z 16006KT 09/M01 A3026 RMK A01 T00891007  RH  052%=      5-min Rain = 0
KMNS 140415Z 16006KT 09/M01 A3026 RMK A01 T00861008  RH  052%=      5-min Rain = 0
KMNS 140420Z 16006KT 08/M01 A3026 RMK A01 T00841007  RH  053%=      5-min Rain = 0
KMNS 140425Z 16007KT 08/M01 A3025 RMK A01 T00831007  RH  053%=      5-min Rain = 0
KMNS 140430Z 16006KT 08/M01 A3025 RMK A01 T00811009  RH  054%=      5-min Rain = 0
KMNS 140435Z 17006KT 08/M01 A3025 RMK A01 T00801009  RH  054%=      5-min Rain = 0
KMNS 140440Z 17006KT 08/M01 A3025 RMK A01 T00811008  RH  054%=      5-min Rain = 0
KMNS 140445Z 17006KT 08/M01 A3025 RMK A01 T00811008  RH  054%=      5-min Rain = 0
KMNS 140450Z 17006KT 08/M01 A3025 RMK A01 T00791009  RH  054%=      5-min Rain = 0
KMNS 140455Z 17006KT 08/M01 A3025 RMK A01 T00781009  RH  054%=      5-min Rain = 0
KMNS 140500Z 18008KT 08/M01 A3025 RMK A01 T00761010  RH  055%=      5-min Rain = 0
KMNS 140505Z 18007KT 08/M01 A3025 RMK A01 T00771010  RH  055%=      5-min Rain = 0
KMNS 140510Z 18007KT 07/M01 A3025 RMK A01 T00721013  RH  055%=      5-min Rain = 0
KMNS 140515Z 18007KT 07/M01 A3025 RMK A01 T00741010  RH  056%=      5-min Rain = 0
KMNS 140520Z 19008KT 08/M01 A3025 RMK A01 T00801008  RH  054%=      5-min Rain = 0
KMNS 140525Z 19008KT 08/M01 A3025 RMK A01 T00771011  RH  054%=      5-min Rain = 0
KMNS 140530Z 18006KT 08/M01 A3025 RMK A01 T00751011  RH  055%=      5-min Rain = 0
KMNS 140535Z 18006KT 08/M01 A3024 RMK A01 T00751011  RH  055%=      5-min Rain = 0
KMNS 140540Z 18006KT 07/M01 A3024 RMK A01 T00731013  RH  055%=      5-min Rain = 0
KMNS 140545Z 19006KT 07/M01 A3024 RMK A01 T00701014  RH  056%=      5-min Rain = 0
KMNS 140550Z 19006KT 07/M02 A3025 RMK A01 T00651018  RH  056%=      5-min Rain = 0
KMNS 140555Z 19006KT 06/M02 A3025 RMK A01 T00621018  RH  057%=      5-min Rain = 0

Page generated in 0.0091 seconds.